Airport ICAO


20:16 UTC

24°C

Clear skies


An affordable passengers' Moving Map for your aircraft. Made for the iPad and the iPhone
More information here

LFPG Charles De Gaulle


Paris FRANCE   VFR CAVOK


METAR LFPG 162000Z 36007KT CAVOK 24/10 Q1014 NOSIG 0h16min

TAF LFPG 161700Z 1618/1724 30006KT CAVOK TX29/1618Z TN18/1703Z PROB30 TEMPO 1618/1620 FEW050CB 3h16min





NOTAMS

OPEN